createdAt,value
2023-03-30T00:00:15.253Z,58.14
2023-03-30T00:01:10.578Z,58.35
2023-03-30T00:02:02.462Z,58.23
2023-03-30T00:02:54.375Z,58.55
2023-03-30T00:03:39.410Z,58.49
2023-03-30T00:04:31.589Z,58.54
2023-03-30T00:05:23.503Z,58.46
2023-03-30T00:06:15.476Z,58.35
2023-03-30T00:07:07.451Z,58.40
2023-03-30T00:07:59.359Z,58.26
2023-03-30T00:08:51.024Z,58.16
2023-03-30T00:09:42.877Z,58.16
2023-03-30T00:10:34.729Z,58.10
2023-03-30T00:11:26.665Z,58.01
2023-03-30T00:12:21.420Z,58.11
2023-03-30T00:13:13.177Z,58.14
2023-03-30T00:13:53.989Z,58.07
2023-03-30T00:14:29.142Z,58.11
2023-03-30T00:15:21.094Z,58.13
2023-03-30T00:16:12.978Z,58.08
2023-03-30T00:17:04.979Z,58.04
2023-03-30T00:17:56.881Z,58.01
2023-03-30T00:18:41.614Z,58.25
2023-03-30T00:19:33.432Z,58.28
2023-03-30T00:20:25.587Z,58.31
2023-03-30T00:21:17.596Z,58.40
2023-03-30T00:22:09.556Z,58.39
2023-03-30T00:23:01.471Z,58.53
2023-03-30T00:23:53.304Z,58.45
2023-03-30T00:24:45.083Z,58.49
2023-03-30T00:25:36.953Z,58.45
2023-03-30T00:26:28.738Z,58.56
2023-03-30T00:27:20.633Z,58.57
2023-03-30T00:28:12.477Z,58.48
2023-03-30T00:29:04.360Z,58.48
2023-03-30T00:29:48.973Z,58.49
2023-03-30T00:30:40.782Z,58.50
2023-03-30T00:31:26.111Z,58.59
2023-03-30T00:32:18.133Z,58.54
2023-03-30T00:33:10.073Z,58.49
2023-03-30T00:34:01.966Z,58.45
2023-03-30T00:34:53.835Z,58.49
2023-03-30T00:35:45.751Z,58.47
2023-03-30T00:36:37.599Z,58.45
2023-03-30T00:37:17.807Z,58.43
2023-03-30T00:38:09.661Z,58.43
2023-03-30T00:39:01.580Z,58.36
2023-03-30T00:39:52.917Z,58.29
2023-03-30T00:40:44.860Z,58.24
2023-03-30T00:41:36.693Z,58.22
2023-03-30T00:42:28.579Z,58.18
2023-03-30T00:43:20.495Z,58.11
2023-03-30T00:44:12.125Z,58.08
2023-03-30T00:45:04.053Z,58.04
2023-03-30T00:45:48.823Z,57.94
2023-03-30T00:46:33.526Z,57.88
2023-03-30T00:47:25.560Z,57.89
2023-03-30T00:48:10.749Z,57.78
2023-03-30T00:49:02.652Z,57.70
2023-03-30T00:49:54.676Z,57.68
2023-03-30T00:50:46.596Z,57.66
2023-03-30T00:51:38.546Z,57.66
2023-03-30T00:52:30.937Z,57.67
2023-03-30T00:53:22.800Z,57.67
2023-03-30T00:54:14.669Z,57.63
2023-03-30T00:55:06.557Z,57.41
2023-03-30T00:55:59.388Z,57.46
2023-03-30T00:56:51.231Z,57.49
2023-03-30T00:57:43.116Z,57.49
2023-03-30T00:58:34.948Z,57.44
2023-03-30T00:59:26.744Z,57.30
2023-03-30T01:00:18.601Z,57.34
2023-03-30T01:01:10.595Z,57.32
2023-03-30T01:02:02.571Z,57.07
2023-03-30T01:02:47.252Z,56.98
2023-03-30T01:03:39.400Z,57.03
2023-03-30T01:04:31.425Z,57.03
2023-03-30T01:05:23.401Z,57.01
2023-03-30T01:06:15.262Z,56.97
2023-03-30T01:07:07.155Z,57.03
2023-03-30T01:07:51.765Z,56.73
2023-03-30T01:08:43.671Z,56.79
2023-03-30T01:09:35.767Z,56.77
2023-03-30T01:10:27.821Z,56.72
2023-03-30T01:11:19.813Z,56.77
2023-03-30T01:12:11.775Z,56.72
2023-03-30T01:13:03.541Z,56.56
2023-03-30T01:13:55.400Z,56.65
2023-03-30T01:14:47.245Z,56.43
2023-03-30T01:15:27.754Z,56.45
2023-03-30T01:16:19.542Z,56.34
2023-03-30T01:17:11.577Z,56.36
2023-03-30T01:18:03.432Z,56.33
2023-03-30T01:18:55.271Z,56.28
2023-03-30T01:19:47.174Z,56.13
2023-03-30T01:20:30.588Z,56.16
2023-03-30T01:21:22.463Z,56.27
2023-03-30T01:22:14.389Z,56.08
2023-03-30T01:23:06.228Z,56.00
2023-03-30T01:23:58.159Z,55.63
2023-03-30T01:24:38.801Z,55.59
2023-03-30T01:25:30.646Z,55.47
2023-03-30T01:26:22.326Z,55.47
2023-03-30T01:27:14.214Z,55.51
2023-03-30T01:28:05.989Z,55.52
2023-03-30T01:28:57.702Z,55.62
2023-03-30T01:29:32.516Z,55.59
2023-03-30T01:30:24.329Z,55.62
2023-03-30T01:31:16.259Z,55.58
2023-03-30T01:32:09.121Z,55.52
2023-03-30T01:33:01.061Z,55.53
2023-03-30T01:33:52.920Z,55.39
2023-03-30T01:34:45.005Z,55.14
2023-03-30T01:35:36.982Z,55.28
2023-03-30T01:36:29.005Z,54.97
2023-03-30T01:37:21.772Z,55.03
2023-03-30T01:38:13.645Z,55.09
2023-03-30T01:39:05.787Z,55.12
2023-03-30T01:39:57.407Z,55.01
2023-03-30T01:40:49.316Z,54.86
2023-03-30T01:41:41.308Z,54.65
2023-03-30T01:42:33.315Z,54.63
2023-03-30T01:43:25.230Z,54.74
2023-03-30T01:44:17.190Z,54.61
2023-03-30T01:45:09.190Z,54.62
2023-03-30T01:46:00.134Z,54.38
2023-03-30T01:46:52.023Z,54.48
2023-03-30T01:47:44.038Z,54.36
2023-03-30T01:48:35.832Z,54.47
2023-03-30T01:49:27.752Z,54.51
2023-03-30T01:50:18.701Z,54.65
2023-03-30T01:51:10.730Z,54.59
2023-03-30T01:52:02.659Z,54.32
2023-03-30T01:52:54.202Z,54.35
2023-03-30T01:53:46.146Z,54.34
2023-03-30T01:54:38.149Z,54.35
2023-03-30T01:55:30.327Z,54.16
2023-03-30T01:56:22.227Z,54.22
2023-03-30T01:57:15.593Z,54.07
2023-03-30T01:58:07.659Z,53.98
2023-03-30T01:58:59.526Z,54.03
2023-03-30T01:59:51.420Z,54.08
2023-03-30T02:00:43.319Z,54.19
2023-03-30T02:01:35.506Z,54.17
2023-03-30T02:02:27.468Z,53.85
2023-03-30T02:03:05.447Z,53.93
2023-03-30T02:03:58.052Z,53.99
2023-03-30T02:04:50.093Z,54.12
2023-03-30T02:05:24.836Z,54.23
2023-03-30T02:06:16.718Z,54.26
2023-03-30T02:07:08.498Z,54.30
2023-03-30T02:08:00.524Z,54.23
2023-03-30T02:08:41.534Z,54.17
2023-03-30T02:09:34.734Z,54.26
2023-03-30T02:10:16.665Z,54.41
2023-03-30T02:11:08.635Z,54.43
2023-03-30T02:11:53.388Z,54.42
2023-03-30T02:12:45.252Z,54.51
2023-03-30T02:13:37.340Z,54.53
2023-03-30T02:14:29.215Z,54.55
2023-03-30T02:15:21.024Z,54.56
2023-03-30T02:16:13.071Z,54.63
2023-03-30T02:17:04.989Z,54.65
2023-03-30T02:17:57.949Z,54.73
2023-03-30T02:18:42.393Z,54.61
2023-03-30T02:19:34.348Z,54.68
2023-03-30T02:20:26.326Z,54.76
2023-03-30T02:21:18.170Z,54.79
2023-03-30T02:22:10.015Z,54.80
2023-03-30T02:23:01.830Z,54.82
2023-03-30T02:23:53.595Z,54.84
2023-03-30T02:24:38.805Z,54.89
2023-03-30T02:25:23.413Z,54.92
2023-03-30T02:26:15.412Z,54.93
2023-03-30T02:27:07.251Z,54.96
2023-03-30T02:27:59.164Z,54.99
2023-03-30T02:28:51.052Z,55.03
2023-03-30T02:29:42.947Z,55.03
2023-03-30T02:30:34.704Z,55.05
2023-03-30T02:31:06.711Z,55.07
2023-03-30T02:31:58.655Z,55.10
2023-03-30T02:32:50.583Z,55.11
2023-03-30T02:33:42.597Z,55.14
2023-03-30T02:34:34.509Z,55.20
2023-03-30T02:35:26.250Z,55.20
2023-03-30T02:36:18.102Z,55.22
2023-03-30T02:37:10.054Z,55.27
2023-03-30T02:38:01.949Z,55.27
2023-03-30T02:38:53.896Z,55.26
2023-03-30T02:39:46.838Z,55.30
2023-03-30T02:40:38.836Z,55.30
2023-03-30T02:41:30.733Z,55.36
2023-03-30T02:42:22.616Z,55.54
2023-03-30T02:43:14.969Z,55.52
2023-03-30T02:44:06.945Z,55.53
2023-03-30T02:44:58.777Z,55.53
2023-03-30T02:45:50.834Z,55.53
2023-03-30T02:46:42.866Z,55.54
2023-03-30T02:47:34.825Z,55.54
2023-03-30T02:48:26.731Z,55.56
2023-03-30T02:49:18.668Z,55.51
2023-03-30T02:50:10.677Z,55.54
2023-03-30T02:51:02.946Z,55.57
2023-03-30T02:51:54.831Z,55.61
2023-03-30T02:52:46.846Z,55.60
2023-03-30T02:53:38.545Z,55.63
2023-03-30T02:54:30.743Z,55.77
2023-03-30T02:55:22.538Z,55.85
2023-03-30T02:56:04.577Z,55.88
2023-03-30T02:56:56.624Z,55.89
2023-03-30T02:57:41.561Z,55.86
2023-03-30T02:58:33.495Z,55.86
2023-03-30T02:59:25.465Z,55.91
2023-03-30T03:00:16.716Z,55.84
2023-03-30T03:01:08.818Z,55.81
2023-03-30T03:02:00.845Z,55.80
2023-03-30T03:02:53.082Z,55.79
2023-03-30T03:03:45.100Z,55.86
2023-03-30T03:04:37.127Z,55.86
2023-03-30T03:05:29.137Z,55.81
2023-03-30T03:06:24.058Z,55.79
2023-03-30T03:07:15.882Z,55.77
2023-03-30T03:08:07.755Z,55.78
2023-03-30T03:08:59.656Z,55.76
2023-03-30T03:09:51.707Z,55.76
2023-03-30T03:10:43.599Z,55.77
2023-03-30T03:11:35.496Z,55.79
2023-03-30T03:12:27.470Z,55.83
2023-03-30T03:13:19.532Z,55.85
2023-03-30T03:14:11.485Z,55.88
2023-03-30T03:15:03.206Z,55.93
2023-03-30T03:15:54.973Z,55.96
2023-03-30T03:16:46.771Z,55.98
2023-03-30T03:17:27.511Z,56.04
2023-03-30T03:18:19.346Z,56.06
2023-03-30T03:19:11.218Z,56.10
2023-03-30T03:19:48.341Z,56.17
2023-03-30T03:20:30.731Z,56.19
2023-03-30T03:21:22.721Z,56.22
2023-03-30T03:22:14.622Z,56.26
2023-03-30T03:23:06.541Z,56.30
2023-03-30T03:23:58.622Z,56.34
2023-03-30T03:24:33.378Z,56.35
2023-03-30T03:25:25.253Z,56.40
2023-03-30T03:26:17.069Z,56.42
2023-03-30T03:27:08.134Z,56.42
2023-03-30T03:27:59.977Z,56.42
2023-03-30T03:28:51.832Z,56.42
2023-03-30T03:29:43.737Z,56.43
2023-03-30T03:30:35.880Z,56.44
2023-03-30T03:31:27.804Z,56.47
2023-03-30T03:32:19.750Z,56.51
2023-03-30T03:33:05.626Z,56.56
2023-03-30T03:33:57.443Z,56.56
2023-03-30T03:34:49.273Z,56.56
2023-03-30T03:35:41.157Z,56.57
2023-03-30T03:36:33.058Z,56.58
2023-03-30T03:37:24.779Z,56.61
2023-03-30T03:37:59.593Z,56.63
2023-03-30T03:38:51.418Z,56.65
2023-03-30T03:39:43.380Z,56.68
2023-03-30T03:40:35.020Z,56.70
2023-03-30T03:41:27.000Z,56.78
2023-03-30T03:42:18.903Z,56.74
2023-03-30T03:43:10.855Z,56.73
2023-03-30T03:44:02.770Z,56.73
2023-03-30T03:44:44.409Z,56.74
2023-03-30T03:45:28.718Z,56.75
2023-03-30T03:46:20.634Z,56.79
2023-03-30T03:46:55.692Z,56.80
2023-03-30T03:47:30.535Z,56.82
2023-03-30T03:48:22.479Z,56.84
2023-03-30T03:49:14.321Z,56.89
2023-03-30T03:49:59.067Z,56.93
2023-03-30T03:50:50.934Z,56.97
2023-03-30T03:51:33.266Z,57.00
2023-03-30T03:52:17.855Z,57.04
2023-03-30T03:53:09.589Z,57.07
2023-03-30T03:53:54.411Z,57.12
2023-03-30T03:54:46.329Z,57.15
2023-03-30T03:55:37.950Z,57.20
2023-03-30T03:56:29.900Z,57.25
2023-03-30T03:57:21.968Z,57.30
2023-03-30T03:58:13.897Z,57.36
2023-03-30T03:59:05.788Z,57.40
2023-03-30T03:59:57.645Z,57.41
2023-03-30T04:00:49.648Z,57.44
2023-03-30T04:01:31.639Z,57.49
2023-03-30T04:02:24.078Z,57.52
2023-03-30T04:03:16.167Z,57.54
2023-03-30T04:04:08.175Z,57.57
2023-03-30T04:05:00.050Z,57.61
2023-03-30T04:05:52.061Z,57.68
2023-03-30T04:06:43.941Z,57.73
2023-03-30T04:07:25.879Z,57.78
2023-03-30T04:08:17.685Z,57.79
2023-03-30T04:09:09.599Z,57.82
2023-03-30T04:10:01.540Z,57.86
2023-03-30T04:10:53.373Z,57.86
2023-03-30T04:11:45.305Z,57.87
2023-03-30T04:12:37.227Z,57.89
2023-03-30T04:13:18.124Z,57.90
2023-03-30T04:14:09.499Z,57.98
2023-03-30T04:15:01.346Z,57.95
2023-03-30T04:15:52.943Z,57.97
2023-03-30T04:16:44.784Z,57.97
2023-03-30T04:17:36.669Z,57.97
2023-03-30T04:18:28.715Z,58.29
2023-03-30T04:19:20.783Z,58.18
2023-03-30T04:20:12.558Z,58.13
2023-03-30T04:21:03.153Z,58.15
2023-03-30T04:21:55.170Z,58.14
2023-03-30T04:22:42.633Z,58.15
2023-03-30T04:23:34.541Z,58.18
2023-03-30T04:24:26.401Z,58.21
2023-03-30T04:25:03.701Z,58.27
2023-03-30T04:25:55.581Z,58.31
2023-03-30T04:26:47.447Z,58.37
2023-03-30T04:27:39.300Z,58.37
2023-03-30T04:28:26.549Z,58.41
2023-03-30T04:29:11.194Z,58.44
2023-03-30T04:30:03.016Z,58.47
2023-03-30T04:30:46.201Z,58.49
2023-03-30T04:31:32.214Z,58.55
2023-03-30T04:32:13.027Z,58.59
2023-03-30T04:32:54.312Z,58.64
2023-03-30T04:33:47.479Z,58.67
2023-03-30T04:34:40.511Z,58.71
2023-03-30T04:35:32.438Z,58.72
2023-03-30T04:36:24.407Z,58.73
2023-03-30T04:37:09.054Z,58.72
2023-03-30T04:38:00.877Z,58.71
2023-03-30T04:38:53.917Z,58.72
2023-03-30T04:39:45.814Z,58.74
2023-03-30T04:40:37.933Z,58.76
2023-03-30T04:41:13.712Z,58.78
2023-03-30T04:42:05.575Z,58.80
2023-03-30T04:42:57.461Z,58.81
2023-03-30T04:43:32.025Z,58.85
2023-03-30T04:44:23.870Z,58.87
2023-03-30T04:45:15.737Z,58.89
2023-03-30T04:46:07.765Z,58.89
2023-03-30T04:46:49.648Z,58.88
2023-03-30T04:47:41.500Z,58.91
2023-03-30T04:48:33.432Z,58.94
2023-03-30T04:49:18.140Z,58.97
2023-03-30T04:50:08.487Z,58.99
2023-03-30T04:51:00.609Z,59.01
2023-03-30T04:51:53.255Z,59.00
2023-03-30T04:52:45.263Z,59.00
2023-03-30T04:53:22.487Z,59.00
2023-03-30T04:54:14.277Z,59.01
2023-03-30T04:55:04.487Z,59.01
2023-03-30T04:55:56.399Z,59.02
2023-03-30T04:56:48.135Z,59.03
2023-03-30T04:57:32.777Z,59.04
2023-03-30T04:58:17.537Z,59.04
2023-03-30T04:58:54.886Z,59.05
2023-03-30T04:59:46.715Z,59.04
2023-03-30T05:00:38.567Z,59.01
2023-03-30T05:01:30.406Z,59.04
2023-03-30T05:02:22.732Z,59.03
2023-03-30T05:03:14.935Z,59.05
2023-03-30T05:04:06.888Z,59.15
2023-03-30T05:04:58.907Z,59.18
2023-03-30T05:05:50.703Z,59.09
2023-03-30T05:06:32.598Z,59.15
2023-03-30T05:07:22.598Z,59.12
2023-03-30T05:08:14.729Z,59.13
2023-03-30T05:08:59.118Z,59.19
2023-03-30T05:09:50.953Z,59.09
2023-03-30T05:10:36.214Z,59.04
2023-03-30T05:11:28.171Z,59.05
2023-03-30T05:12:20.041Z,59.02
2023-03-30T05:13:11.825Z,59.01
2023-03-30T05:13:52.488Z,58.97
2023-03-30T05:14:44.231Z,58.98
2023-03-30T05:15:36.047Z,58.92
2023-03-30T05:16:27.952Z,58.88
2023-03-30T05:17:10.340Z,58.83
2023-03-30T05:18:02.401Z,58.80
2023-03-30T05:18:54.318Z,58.78
2023-03-30T05:19:46.099Z,58.74
2023-03-30T05:20:38.064Z,58.71
2023-03-30T05:21:29.983Z,58.68
2023-03-30T05:22:21.784Z,58.64
2023-03-30T05:23:13.651Z,58.62
2023-03-30T05:24:05.398Z,58.59
2023-03-30T05:24:57.405Z,58.57
2023-03-30T05:25:49.370Z,58.53
2023-03-30T05:26:41.431Z,58.51
2023-03-30T05:27:33.202Z,58.47
2023-03-30T05:28:25.002Z,58.46
2023-03-30T05:29:17.080Z,58.44
2023-03-30T05:30:09.114Z,58.41
2023-03-30T05:31:01.137Z,58.40
2023-03-30T05:31:53.133Z,58.39
2023-03-30T05:32:45.065Z,58.36
2023-03-30T05:33:30.487Z,58.35
2023-03-30T05:34:22.383Z,58.34
2023-03-30T05:35:14.117Z,58.31
2023-03-30T05:36:06.037Z,58.28
2023-03-30T05:36:57.864Z,58.27
2023-03-30T05:37:50.930Z,58.22
2023-03-30T05:38:42.874Z,58.21
2023-03-30T05:39:32.080Z,58.18
2023-03-30T05:40:24.038Z,58.15
2023-03-30T05:41:15.771Z,58.15
2023-03-30T05:42:07.664Z,58.13
2023-03-30T05:42:42.602Z,58.08
2023-03-30T05:43:34.239Z,58.08
2023-03-30T05:44:26.107Z,58.06
2023-03-30T05:45:18.013Z,58.06
2023-03-30T05:45:52.422Z,58.03
2023-03-30T05:46:44.497Z,58.04
2023-03-30T05:47:30.309Z,58.03
2023-03-30T05:48:06.433Z,58.01
2023-03-30T05:48:58.442Z,58.01
2023-03-30T05:49:41.086Z,57.99
2023-03-30T05:50:15.761Z,57.97
2023-03-30T05:51:07.935Z,57.97
2023-03-30T05:52:00.135Z,57.97
2023-03-30T05:52:51.971Z,57.93
2023-03-30T05:53:43.414Z,57.92
2023-03-30T05:54:31.925Z,57.90
2023-03-30T05:55:23.824Z,57.90
2023-03-30T05:56:15.713Z,57.89
2023-03-30T05:57:07.554Z,57.87
2023-03-30T05:57:59.551Z,57.85
2023-03-30T05:58:51.329Z,57.84
2023-03-30T05:59:43.204Z,57.84
2023-03-30T06:00:35.134Z,57.84
2023-03-30T06:01:26.958Z,57.82
2023-03-30T06:02:18.800Z,57.83
2023-03-30T06:03:10.874Z,57.80
2023-03-30T06:04:02.826Z,57.78
2023-03-30T06:04:54.603Z,57.78
2023-03-30T06:05:46.563Z,57.70
2023-03-30T06:06:38.542Z,57.73
2023-03-30T06:07:30.456Z,57.71
2023-03-30T06:08:22.945Z,57.69
2023-03-30T06:09:07.558Z,57.68
2023-03-30T06:09:59.451Z,57.67
2023-03-30T06:10:51.211Z,57.67
2023-03-30T06:11:43.100Z,57.61
2023-03-30T06:12:20.092Z,57.58
2023-03-30T06:13:12.099Z,57.55
2023-03-30T06:14:04.037Z,57.60
2023-03-30T06:14:55.889Z,57.62
2023-03-30T06:15:47.930Z,57.61
2023-03-30T06:16:39.526Z,57.62
2023-03-30T06:17:34.342Z,57.59
2023-03-30T06:18:24.899Z,57.59
2023-03-30T06:19:05.483Z,57.60
2023-03-30T06:19:57.422Z,57.59
2023-03-30T06:20:49.199Z,57.59
2023-03-30T06:21:41.082Z,57.57
2023-03-30T06:22:32.888Z,57.56
2023-03-30T06:23:24.646Z,57.53
2023-03-30T06:24:16.498Z,57.51
2023-03-30T06:24:57.181Z,57.45
2023-03-30T06:25:49.240Z,57.45
2023-03-30T06:26:29.907Z,57.45
2023-03-30T06:27:21.780Z,57.43
2023-03-30T06:28:13.615Z,57.44
2023-03-30T06:29:05.453Z,57.42
2023-03-30T06:29:57.200Z,57.37
2023-03-30T06:30:49.176Z,57.37
2023-03-30T06:31:41.155Z,57.39
2023-03-30T06:32:33.227Z,57.32
2023-03-30T06:33:25.117Z,57.37
2023-03-30T06:34:16.904Z,57.33
2023-03-30T06:35:08.722Z,57.36
2023-03-30T06:36:00.692Z,57.37
2023-03-30T06:36:52.464Z,57.34
2023-03-30T06:37:38.561Z,57.31
2023-03-30T06:38:30.378Z,57.30
2023-03-30T06:39:22.255Z,57.32
2023-03-30T06:40:14.047Z,57.29
2023-03-30T06:41:06.044Z,57.33
2023-03-30T06:41:57.929Z,57.34
2023-03-30T06:42:49.876Z,57.38
2023-03-30T06:43:40.628Z,57.40
2023-03-30T06:44:32.539Z,57.43
2023-03-30T06:45:17.144Z,57.45
2023-03-30T06:46:09.044Z,57.45
2023-03-30T06:47:00.988Z,57.44
2023-03-30T06:47:52.260Z,57.46
2023-03-30T06:48:26.836Z,57.47
2023-03-30T06:49:18.870Z,57.49
2023-03-30T06:50:10.735Z,57.49
2023-03-30T06:51:02.844Z,57.49
2023-03-30T06:51:58.518Z,57.50
2023-03-30T06:52:51.231Z,57.50
2023-03-30T06:53:43.124Z,57.54
2023-03-30T06:54:34.801Z,57.56
2023-03-30T06:55:26.696Z,57.57
2023-03-30T06:56:07.297Z,57.57
2023-03-30T06:56:59.130Z,57.60
2023-03-30T06:57:39.855Z,57.62
2023-03-30T06:58:31.848Z,57.70
2023-03-30T06:59:23.624Z,57.68
2023-03-30T07:00:08.691Z,57.68
2023-03-30T07:01:00.578Z,57.70
2023-03-30T07:01:52.595Z,57.71
2023-03-30T07:02:37.193Z,57.71
2023-03-30T07:03:29.069Z,57.73
2023-03-30T07:04:10.005Z,57.76
2023-03-30T07:05:02.049Z,57.77
2023-03-30T07:05:53.940Z,57.77
2023-03-30T07:06:45.839Z,57.78
2023-03-30T07:07:37.661Z,57.77
2023-03-30T07:08:29.551Z,57.75
2023-03-30T07:09:21.343Z,57.78
2023-03-30T07:10:13.044Z,57.79
2023-03-30T07:11:05.152Z,57.79
2023-03-30T07:11:56.221Z,57.80
2023-03-30T07:12:48.557Z,57.79
2023-03-30T07:13:23.319Z,57.78
2023-03-30T07:14:20.017Z,57.80
2023-03-30T07:15:11.955Z,57.78
2023-03-30T07:16:03.851Z,57.79
2023-03-30T07:16:55.791Z,57.80
2023-03-30T07:17:40.265Z,57.80
2023-03-30T07:18:32.249Z,57.83
2023-03-30T07:19:07.055Z,57.81
2023-03-30T07:19:58.883Z,57.77
2023-03-30T07:20:50.786Z,57.76
2023-03-30T07:21:42.599Z,57.74
2023-03-30T07:22:27.466Z,57.75
2023-03-30T07:23:07.864Z,57.74
2023-03-30T07:23:59.693Z,57.74
2023-03-30T07:24:44.212Z,57.78
2023-03-30T07:25:36.197Z,57.77
2023-03-30T07:26:18.957Z,57.76
2023-03-30T07:27:10.786Z,57.76
2023-03-30T07:28:02.642Z,57.78
2023-03-30T07:28:54.493Z,57.88
2023-03-30T07:29:46.297Z,57.86
2023-03-30T07:30:38.186Z,57.86
2023-03-30T07:31:30.067Z,57.83
2023-03-30T07:32:22.107Z,57.80
2023-03-30T07:33:14.247Z,57.79
2023-03-30T07:34:06.304Z,57.82
2023-03-30T07:34:58.075Z,57.87
2023-03-30T07:35:49.979Z,57.90
2023-03-30T07:36:42.074Z,57.87
2023-03-30T07:37:34.048Z,57.84
2023-03-30T07:38:25.968Z,57.84
2023-03-30T07:39:06.922Z,57.87
2023-03-30T07:39:58.868Z,57.89
2023-03-30T07:40:50.703Z,57.80
2023-03-30T07:41:42.702Z,57.73
2023-03-30T07:42:34.706Z,57.69
2023-03-30T07:43:26.588Z,57.67
2023-03-30T07:44:08.175Z,57.64
2023-03-30T07:45:00.012Z,57.56
2023-03-30T07:45:51.977Z,57.55
2023-03-30T07:46:44.117Z,57.57
2023-03-30T07:47:29.881Z,57.58
2023-03-30T07:48:21.829Z,57.59
2023-03-30T07:48:57.205Z,57.59
2023-03-30T07:49:49.115Z,57.58
2023-03-30T07:50:40.905Z,57.56
2023-03-30T07:51:32.916Z,57.58
2023-03-30T07:52:24.809Z,57.57
2023-03-30T07:53:16.723Z,57.58
2023-03-30T07:54:08.537Z,57.67
2023-03-30T07:55:00.534Z,57.69
2023-03-30T07:55:52.417Z,57.75
2023-03-30T07:56:44.312Z,57.74
2023-03-30T07:57:36.196Z,57.76
2023-03-30T07:58:27.973Z,57.71
2023-03-30T07:59:19.992Z,57.69
2023-03-30T08:00:11.761Z,57.64
2023-03-30T08:01:03.860Z,57.63
2023-03-30T08:01:55.928Z,57.57
2023-03-30T08:02:47.866Z,57.47
2023-03-30T08:03:39.969Z,57.45
2023-03-30T08:04:32.152Z,57.47
2023-03-30T08:05:16.877Z,57.40
2023-03-30T08:06:08.628Z,57.35
2023-03-30T08:07:00.484Z,57.35
2023-03-30T08:07:52.169Z,57.31
2023-03-30T08:08:32.588Z,57.34
2023-03-30T08:09:24.564Z,57.34
2023-03-30T08:10:16.450Z,57.38
2023-03-30T08:10:57.143Z,57.37
2023-03-30T08:11:42.641Z,57.36
2023-03-30T08:12:34.634Z,57.27
2023-03-30T08:13:26.550Z,57.24
2023-03-30T08:14:18.347Z,57.23
2023-03-30T08:15:08.693Z,57.23
2023-03-30T08:16:00.549Z,57.36
2023-03-30T08:16:52.563Z,57.45
2023-03-30T08:17:44.437Z,57.54
2023-03-30T08:18:36.299Z,57.48
2023-03-30T08:19:28.233Z,57.41
2023-03-30T08:20:20.203Z,57.34
2023-03-30T08:21:12.088Z,57.35
2023-03-30T08:22:02.474Z,57.35
2023-03-30T08:22:54.375Z,57.35
2023-03-30T08:23:46.059Z,57.35
2023-03-30T08:24:37.773Z,57.34
2023-03-30T08:25:29.761Z,57.32
2023-03-30T08:26:21.852Z,57.25
2023-03-30T08:27:13.910Z,57.01
2023-03-30T08:28:05.701Z,56.88
2023-03-30T08:28:57.545Z,56.66
2023-03-30T08:29:49.344Z,56.65
2023-03-30T08:30:41.331Z,56.68
2023-03-30T08:31:33.347Z,56.69
2023-03-30T08:32:25.323Z,56.70
2023-03-30T08:33:18.141Z,56.74
2023-03-30T08:34:10.162Z,56.77
2023-03-30T08:34:54.812Z,56.76
2023-03-30T08:35:46.760Z,56.74
2023-03-30T08:36:29.812Z,56.74
2023-03-30T08:37:21.658Z,56.70
2023-03-30T08:38:13.483Z,56.63
2023-03-30T08:39:05.387Z,56.61
2023-03-30T08:39:57.228Z,56.54
2023-03-30T08:40:49.243Z,56.59
2023-03-30T08:41:41.276Z,56.63
2023-03-30T08:42:33.162Z,56.61
2023-03-30T08:43:25.157Z,56.62
2023-03-30T08:44:16.960Z,56.64
2023-03-30T08:45:07.600Z,56.55
2023-03-30T08:45:59.653Z,56.57
2023-03-30T08:46:51.626Z,56.55
2023-03-30T08:47:32.021Z,56.28
2023-03-30T08:48:24.012Z,56.28
2023-03-30T08:49:15.963Z,56.40
2023-03-30T08:50:07.856Z,56.44
2023-03-30T08:50:59.845Z,56.51
2023-03-30T08:51:41.700Z,56.55
2023-03-30T08:52:33.583Z,56.59
2023-03-30T08:53:25.503Z,56.62
2023-03-30T08:54:17.643Z,56.63
2023-03-30T08:55:09.486Z,56.63
2023-03-30T08:55:53.420Z,56.65
2023-03-30T08:56:45.231Z,56.58
2023-03-30T08:57:37.081Z,56.28
2023-03-30T08:58:13.894Z,56.26
2023-03-30T08:58:58.667Z,56.19
2023-03-30T08:59:40.696Z,56.30
2023-03-30T09:00:26.926Z,56.22
2023-03-30T09:01:18.764Z,56.22
2023-03-30T09:02:10.778Z,56.27
2023-03-30T09:02:51.599Z,56.21
2023-03-30T09:03:43.501Z,56.09
2023-03-30T09:04:35.464Z,55.93
2023-03-30T09:05:27.590Z,55.93
2023-03-30T09:06:19.349Z,55.92
2023-03-30T09:07:11.306Z,55.93
2023-03-30T09:08:03.152Z,55.92
2023-03-30T09:08:55.082Z,55.97
2023-03-30T09:09:49.160Z,55.88
2023-03-30T09:10:41.509Z,55.81
2023-03-30T09:11:21.083Z,55.85
2023-03-30T09:12:02.052Z,55.76
2023-03-30T09:12:53.993Z,55.67
2023-03-30T09:13:45.957Z,55.51
2023-03-30T09:14:37.797Z,55.57
2023-03-30T09:15:31.762Z,55.63
2023-03-30T09:16:24.004Z,55.53
2023-03-30T09:17:16.065Z,55.63
2023-03-30T09:18:07.984Z,55.77
2023-03-30T09:18:59.903Z,55.91
2023-03-30T09:19:51.633Z,56.01
2023-03-30T09:20:45.554Z,56.05
2023-03-30T09:21:37.891Z,55.83
2023-03-30T09:22:29.707Z,55.72
2023-03-30T09:23:21.531Z,55.71
2023-03-30T09:24:13.488Z,55.71
2023-03-30T09:25:05.220Z,55.68
2023-03-30T09:25:58.690Z,55.71
2023-03-30T09:26:51.830Z,55.67
2023-03-30T09:27:43.681Z,55.60
2023-03-30T09:28:35.666Z,55.50
2023-03-30T09:29:27.514Z,55.36
2023-03-30T09:30:19.365Z,55.31
2023-03-30T09:31:11.381Z,55.22
2023-03-30T09:32:03.441Z,55.37
2023-03-30T09:32:55.518Z,55.25
2023-03-30T09:33:47.479Z,55.23
2023-03-30T09:34:39.344Z,55.28
2023-03-30T09:35:28.464Z,55.39
2023-03-30T09:36:20.418Z,55.33
2023-03-30T09:37:12.474Z,55.36
2023-03-30T09:38:04.384Z,55.42
2023-03-30T09:38:56.347Z,55.52
2023-03-30T09:39:48.389Z,55.67
2023-03-30T09:40:32.858Z,55.72
2023-03-30T09:41:24.697Z,55.78
2023-03-30T09:42:10.574Z,55.83
2023-03-30T09:43:02.563Z,55.87
2023-03-30T09:43:47.044Z,55.90
2023-03-30T09:44:38.874Z,56.01
2023-03-30T09:45:32.043Z,55.97
2023-03-30T09:46:25.091Z,55.76
2023-03-30T09:47:17.028Z,55.70
2023-03-30T09:47:54.177Z,55.43
2023-03-30T09:48:46.119Z,55.42
2023-03-30T09:49:38.124Z,55.48
2023-03-30T09:50:30.170Z,55.43
2023-03-30T09:51:22.030Z,55.45
2023-03-30T09:52:13.780Z,55.57
2023-03-30T09:53:05.633Z,55.71
2023-03-30T09:53:46.685Z,55.72
2023-03-30T09:54:38.504Z,55.50
2023-03-30T09:55:30.421Z,55.46
2023-03-30T09:56:22.309Z,55.50
2023-03-30T09:57:14.164Z,55.50
2023-03-30T09:58:06.205Z,55.19
2023-03-30T09:58:58.002Z,55.10
2023-03-30T09:59:50.006Z,55.05
2023-03-30T10:00:41.867Z,55.11
2023-03-30T10:01:33.931Z,54.99
2023-03-30T10:02:14.767Z,54.96
2023-03-30T10:03:06.825Z,54.96
2023-03-30T10:03:51.475Z,54.98
2023-03-30T10:04:43.475Z,55.03
2023-03-30T10:05:35.339Z,55.09
2023-03-30T10:06:16.021Z,55.03
2023-03-30T10:08:04.727Z,55.11
2023-03-30T10:08:56.782Z,55.08
2023-03-30T10:09:48.712Z,55.02
2023-03-30T10:10:40.724Z,55.08
2023-03-30T10:11:32.537Z,55.01
2023-03-30T10:12:24.472Z,54.81
2023-03-30T10:13:06.259Z,54.84
2023-03-30T10:13:56.793Z,54.85
2023-03-30T10:14:48.647Z,54.92
2023-03-30T10:15:40.618Z,54.84
2023-03-30T10:16:32.779Z,54.80
2023-03-30T10:17:17.596Z,54.69
2023-03-30T10:18:09.518Z,54.63
2023-03-30T10:19:01.435Z,54.73
2023-03-30T10:20:45.233Z,54.86
2023-03-30T10:21:37.099Z,54.78
2023-03-30T10:22:28.999Z,54.82
2023-03-30T10:23:09.858Z,54.77
2023-03-30T10:24:04.666Z,54.77
2023-03-30T10:24:45.314Z,54.80
2023-03-30T10:25:37.184Z,54.80
2023-03-30T10:26:29.077Z,54.87
2023-03-30T10:27:20.908Z,54.84
2023-03-30T10:28:05.711Z,54.88
2023-03-30T10:28:57.616Z,54.92
2023-03-30T10:29:49.515Z,54.95
2023-03-30T10:30:41.408Z,54.94
2023-03-30T10:31:33.393Z,54.91
2023-03-30T10:32:25.348Z,54.90
2023-03-30T10:33:17.359Z,54.91
2023-03-30T10:34:09.327Z,54.85
2023-03-30T10:35:01.214Z,54.88
2023-03-30T10:35:53.166Z,54.84
2023-03-30T10:36:46.169Z,54.79
2023-03-30T10:37:39.707Z,54.84
2023-03-30T10:38:31.719Z,54.91
2023-03-30T10:39:23.729Z,54.82
2023-03-30T10:40:15.638Z,54.83
2023-03-30T10:41:07.763Z,54.77
2023-03-30T10:42:00.147Z,54.80
2023-03-30T10:42:52.224Z,54.81
2023-03-30T10:43:44.184Z,54.77
2023-03-30T10:44:23.663Z,54.67
2023-03-30T10:45:15.655Z,54.66
2023-03-30T10:46:18.402Z,54.71
2023-03-30T10:47:11.818Z,54.49
2023-03-30T10:48:03.834Z,54.50
2023-03-30T10:48:55.707Z,54.50